Time;durP1;ratioP1;P1;durP2;ratioP2;P2;SDS_P1;SDS_P2;PMS_P1;PMS_P2;Temp;Humidity;BMP_temperature;BMP_pressure;BME280_temperature;BME280_humidity;BME280_pressure;Samples;Min_cycle;Max_cycle;Signal;HPM_P1;HPM_P2
2023/03/28 00:01:29;;;;;;;;;;;2.70;99.90;;;;;;5134243;27;19919;-56
2023/03/28 00:03:56;;;;;;;;;;;2.70;99.90;;;;;;5135037;27;20022;-55
2023/03/28 00:06:23;;;;;;;;;;;2.70;99.90;;;;;;5135144;27;20370;-55
2023/03/28 00:08:50;;;;;;;;;;;2.70;99.90;;;;;;5134386;27;19908;-55
2023/03/28 00:11:19;;;;;;;;;;;2.70;99.90;;;;;;5135276;27;19915;-56
2023/03/28 00:13:46;;;;;;;;;;;2.70;99.90;;;;;;5135088;27;19935;-54
2023/03/28 00:16:12;;;;;;;;;;;2.70;99.90;;;;;;5134176;27;19911;-56
2023/03/28 00:18:37;;;;;;;;;;;2.60;99.90;;;;;;5134873;27;19914;-56
2023/03/28 00:21:06;;;;;;;;;;;2.60;99.90;;;;;;5134872;27;19929;-56
2023/03/28 00:23:32;;;;;;;;;;;2.60;99.90;;;;;;5134007;27;19919;-53
2023/03/28 00:26:02;;;;;;;;;;;2.60;99.90;;;;;;5134671;27;19953;-56
2023/03/28 00:28:28;;;;;;;;;;;2.60;99.90;;;;;;5134180;27;19908;-54
2023/03/28 00:31:00;;;;;;;;;;;2.50;99.90;;;;;;5134589;27;19914;-55
2023/03/28 00:33:27;;;;;;;;;;;2.50;99.90;;;;;;5134801;27;19911;-54
2023/03/28 00:35:54;;;;;;;;;;;2.50;99.90;;;;;;5133756;27;19911;-55
2023/03/28 00:38:20;;;;;;;;;;;2.50;99.90;;;;;;5134653;27;19943;-54
2023/03/28 00:40:47;;;;;;;;;;;2.50;99.90;;;;;;5134530;27;19908;-56
2023/03/28 00:43:13;;;;;;;;;;;2.50;99.90;;;;;;5133559;27;19916;-55
2023/03/28 00:45:38;;;;;;;;;;;2.40;99.90;;;;;;5134369;27;19980;-54
2023/03/28 00:48:08;;;;;;;;;;;2.40;99.90;;;;;;5134330;27;20296;-55
2023/03/28 00:50:35;;;;;;;;;;;2.40;99.90;;;;;;5133584;27;20422;-56
2023/03/28 00:53:05;;;;;;;;;;;2.40;99.90;;;;;;5134263;27;19947;-57
2023/03/28 00:55:41;;;;;;;;;;;2.40;99.90;;;;;;5133835;27;19915;-55
2023/03/28 00:58:12;;;;;;;;;;;2.40;99.90;;;;;;5133132;27;20319;-55
2023/03/28 01:00:40;;;;;;;;;;;2.40;99.90;;;;;;5134033;27;19919;-55
2023/03/28 01:03:05;;;;;;;;;;;2.30;99.90;;;;;;5133989;27;20263;-53
2023/03/28 01:05:32;;;;;;;;;;;2.30;99.90;;;;;;5133436;27;19933;-57
2023/03/28 01:08:02;;;;;;;;;;;2.30;99.90;;;;;;5134241;27;19907;-55
2023/03/28 01:10:28;;;;;;;;;;;2.20;99.90;;;;;;5134128;27;19914;-57
2023/03/28 01:12:54;;;;;;;;;;;2.20;99.90;;;;;;5133207;27;19907;-54
2023/03/28 01:15:20;;;;;;;;;;;2.20;99.90;;;;;;5133974;27;19908;-53
2023/03/28 01:17:46;;;;;;;;;;;2.20;99.90;;;;;;5133390;27;19907;-55
2023/03/28 01:20:12;;;;;;;;;;;2.20;99.90;;;;;;5133817;27;19912;-56
2023/03/28 01:22:46;;;;;;;;;;;2.20;99.90;;;;;;5133882;27;19912;-55
2023/03/28 01:25:25;;;;;;;;;;;2.20;99.90;;;;;;5132879;27;19915;-55
2023/03/28 01:28:00;;;;;;;;;;;2.20;99.90;;;;;;5133883;27;19933;-56
2023/03/28 01:30:30;;;;;;;;;;;2.20;99.90;;;;;;5133898;27;19911;-54
2023/03/28 01:33:14;;;;;;;;;;;2.20;99.90;;;;;;5132928;27;19908;-54
2023/03/28 01:35:49;;;;;;;;;;;2.20;99.90;;;;;;5133555;28;20252;-54
2023/03/28 01:38:20;;;;;;;;;;;2.20;99.90;;;;;;5133619;28;19950;-55
2023/03/28 01:41:00;;;;;;;;;;;2.20;99.90;;;;;;5132878;28;19912;-55
2023/03/28 01:43:44;;;;;;;;;;;2.10;99.90;;;;;;5133750;28;19915;-56
2023/03/28 01:46:14;;;;;;;;;;;2.10;99.90;;;;;;5132728;28;19954;-55
2023/03/28 01:48:58;;;;;;;;;;;2.10;99.90;;;;;;5133694;28;19908;-55
2023/03/28 01:51:42;;;;;;;;;;;2.10;99.90;;;;;;5133586;28;19907;-56
2023/03/28 01:54:07;;;;;;;;;;;2.10;99.90;;;;;;5132695;28;19908;-55
2023/03/28 01:56:37;;;;;;;;;;;2.10;99.90;;;;;;5133714;28;19914;-55
2023/03/28 01:59:08;;;;;;;;;;;2.10;99.90;;;;;;5133540;28;20150;-54
2023/03/28 02:01:44;;;;;;;;;;;2.10;99.90;;;;;;5132441;28;20324;-54
2023/03/28 02:04:12;;;;;;;;;;;2.10;99.90;;;;;;5133371;28;19915;-55
2023/03/28 02:06:38;;;;;;;;;;;2.10;99.90;;;;;;5133463;27;19908;-54
2023/03/28 02:09:06;;;;;;;;;;;2.00;99.90;;;;;;5136132;27;19914;-55
2023/03/28 02:11:33;;;;;;;;;;;2.00;99.90;;;;;;5137548;27;19922;-54
2023/03/28 02:14:01;;;;;;;;;;;2.00;99.90;;;;;;5136667;27;19961;-53
2023/03/28 02:16:28;;;;;;;;;;;2.00;99.90;;;;;;5137405;27;19907;-54
2023/03/28 02:18:55;;;;;;;;;;;2.00;99.90;;;;;;5137270;27;19907;-55
2023/03/28 02:21:24;;;;;;;;;;;2.00;99.90;;;;;;5136445;27;20267;-55
2023/03/28 02:23:51;;;;;;;;;;;2.00;99.90;;;;;;5137068;27;20462;-55
2023/03/28 02:26:17;;;;;;;;;;;2.00;99.90;;;;;;5137216;27;19994;-55
2023/03/28 02:28:44;;;;;;;;;;;2.00;99.90;;;;;;5136553;27;19912;-55
2023/03/28 02:31:12;;;;;;;;;;;2.00;99.90;;;;;;5136999;27;19930;-56
2023/03/28 02:33:45;;;;;;;;;;;2.00;99.90;;;;;;5137078;27;20388;-55
2023/03/28 02:36:11;;;;;;;;;;;2.00;99.90;;;;;;5136132;27;20006;-57
2023/03/28 02:38:47;;;;;;;;;;;2.00;99.90;;;;;;5136958;27;20391;-55
2023/03/28 02:41:28;;;;;;;;;;;2.00;99.90;;;;;;5136866;27;19919;-53
2023/03/28 02:43:53;;;;;;;;;;;2.00;99.90;;;;;;5135941;27;19915;-55
2023/03/28 02:46:22;;;;;;;;;;;2.00;99.90;;;;;;5136827;27;19915;-56
2023/03/28 02:48:47;;;;;;;;;;;2.00;99.90;;;;;;5136747;27;19907;-55
2023/03/28 02:51:30;;;;;;;;;;;1.90;99.90;;;;;;5135832;27;19907;-56
2023/03/28 02:54:21;;;;;;;;;;;1.90;99.90;;;;;;5136579;27;20361;-55
2023/03/28 02:57:05;;;;;;;;;;;1.90;99.90;;;;;;5135756;27;20387;-55
2023/03/28 02:59:37;;;;;;;;;;;1.90;99.90;;;;;;5136575;27;19911;-56
2023/03/28 03:02:03;;;;;;;;;;;1.80;99.90;;;;;;5136323;27;19923;-54
2023/03/28 03:04:28;;;;;;;;;;;1.80;99.90;;;;;;5135637;27;19915;-55
2023/03/28 03:06:54;;;;;;;;;;;1.80;99.90;;;;;;5136358;27;19908;-55
2023/03/28 03:09:19;;;;;;;;;;;1.80;99.90;;;;;;5136183;27;19907;-56
2023/03/28 03:11:45;;;;;;;;;;;1.80;99.90;;;;;;5135489;27;19935;-55
2023/03/28 03:14:11;;;;;;;;;;;1.80;99.90;;;;;;5136229;27;20273;-55
2023/03/28 03:16:37;;;;;;;;;;;1.80;99.90;;;;;;5136311;27;19908;-55
2023/03/28 03:19:03;;;;;;;;;;;1.80;99.90;;;;;;5134410;27;19912;-56
2023/03/28 03:21:28;;;;;;;;;;;1.80;99.90;;;;;;5136173;27;20057;-55
2023/03/28 03:23:54;;;;;;;;;;;1.80;99.90;;;;;;5135834;27;19922;-55
2023/03/28 03:26:19;;;;;;;;;;;1.80;99.90;;;;;;5135364;27;19907;-55
2023/03/28 03:28:45;;;;;;;;;;;1.80;99.90;;;;;;5136109;27;19908;-55
2023/03/28 03:31:10;;;;;;;;;;;1.80;99.90;;;;;;5135895;27;19911;-56
2023/03/28 03:33:40;;;;;;;;;;;1.70;99.90;;;;;;5135071;27;19930;-56
2023/03/28 03:36:06;;;;;;;;;;;1.80;99.90;;;;;;5135805;27;19907;-57
2023/03/28 03:38:31;;;;;;;;;;;1.70;99.90;;;;;;5134867;27;19915;-55
2023/03/28 03:40:57;;;;;;;;;;;1.70;99.90;;;;;;5135589;27;19908;-55
2023/03/28 03:43:22;;;;;;;;;;;1.70;99.90;;;;;;5135584;27;19915;-57
2023/03/28 03:45:48;;;;;;;;;;;1.60;99.90;;;;;;5134839;27;20009;-56
2023/03/28 03:48:13;;;;;;;;;;;1.60;99.90;;;;;;5135526;27;19912;-56
2023/03/28 03:50:39;;;;;;;;;;;1.50;99.90;;;;;;5135564;27;19915;-56
2023/03/28 03:53:04;;;;;;;;;;;1.40;99.90;;;;;;5134554;27;20247;-55
2023/03/28 03:55:31;;;;;;;;;;;1.40;99.90;;;;;;5135337;27;19907;-55
2023/03/28 03:57:56;;;;;;;;;;;1.30;99.90;;;;;;5135354;27;19914;-57
2023/03/28 04:00:22;;;;;;;;;;;1.30;99.90;;;;;;5134325;27;19919;-56
2023/03/28 04:02:47;;;;;;;;;;;1.30;99.90;;;;;;5135188;27;19956;-55
2023/03/28 04:05:13;;;;;;;;;;;1.40;99.90;;;;;;5135127;27;20377;-55
2023/03/28 04:07:38;;;;;;;;;;;1.40;99.90;;;;;;5134371;27;19913;-55
2023/03/28 04:10:04;;;;;;;;;;;1.50;99.90;;;;;;5134964;27;19918;-55
2023/03/28 04:12:30;;;;;;;;;;;1.50;99.90;;;;;;5135172;27;20319;-55
2023/03/28 04:14:55;;;;;;;;;;;1.50;99.90;;;;;;5134173;27;19914;-56
2023/03/28 04:17:22;;;;;;;;;;;1.50;99.90;;;;;;5134945;27;19916;-56
2023/03/28 04:19:48;;;;;;;;;;;1.40;99.90;;;;;;5135171;27;19914;-56
2023/03/28 04:22:17;;;;;;;;;;;1.30;99.90;;;;;;5134024;27;20320;-53
2023/03/28 04:24:43;;;;;;;;;;;1.20;99.90;;;;;;5134885;27;19947;-55
2023/03/28 04:27:09;;;;;;;;;;;1.20;99.90;;;;;;5134733;27;19908;-56
2023/03/28 04:29:35;;;;;;;;;;;1.10;99.90;;;;;;5133941;27;20051;-53
2023/03/28 04:32:04;;;;;;;;;;;1.10;99.90;;;;;;5134307;27;19914;-54
2023/03/28 04:34:30;;;;;;;;;;;1.00;99.90;;;;;;5134706;27;19911;-54
2023/03/28 04:37:00;;;;;;;;;;;1.00;99.90;;;;;;5133707;27;19976;-56
2023/03/28 04:39:27;;;;;;;;;;;1.00;99.90;;;;;;5134610;27;19957;-56
2023/03/28 04:41:54;;;;;;;;;;;1.00;99.90;;;;;;5133700;27;19911;-56
2023/03/28 04:44:20;;;;;;;;;;;0.90;99.90;;;;;;5134291;27;19923;-55
2023/03/28 04:46:47;;;;;;;;;;;0.90;99.90;;;;;;5134691;27;19990;-57
2023/03/28 04:49:13;;;;;;;;;;;0.90;99.90;;;;;;5133620;27;19957;-56
2023/03/28 04:51:39;;;;;;;;;;;0.90;99.90;;;;;;5134241;27;20334;-56
2023/03/28 04:54:04;;;;;;;;;;;0.80;99.90;;;;;;5134219;27;19908;-56
2023/03/28 04:56:30;;;;;;;;;;;0.90;99.90;;;;;;5133550;27;19912;-55
2023/03/28 04:58:56;;;;;;;;;;;0.80;99.90;;;;;;5134128;27;19990;-53
2023/03/28 05:01:24;;;;;;;;;;;0.80;99.90;;;;;;5133836;27;20370;-54
2023/03/28 05:03:50;;;;;;;;;;;0.80;99.90;;;;;;5133228;27;19922;-56
2023/03/28 05:06:15;;;;;;;;;;;0.80;99.90;;;;;;5134036;27;19912;-56
2023/03/28 05:08:42;;;;;;;;;;;0.80;99.90;;;;;;5134031;27;19907;-53
2023/03/28 05:11:08;;;;;;;;;;;0.80;99.90;;;;;;5133185;27;19923;-57
2023/03/28 05:13:34;;;;;;;;;;;0.80;99.90;;;;;;5134005;27;20377;-54
2023/03/28 05:15:59;;;;;;;;;;;0.90;99.90;;;;;;5133839;27;19907;-55
2023/03/28 05:18:25;;;;;;;;;;;0.90;99.90;;;;;;5132996;27;19994;-55
2023/03/28 05:20:50;;;;;;;;;;;0.90;99.90;;;;;;5133765;27;19907;-55
2023/03/28 05:23:16;;;;;;;;;;;0.90;99.90;;;;;;5133837;27;19919;-55
2023/03/28 05:25:41;;;;;;;;;;;0.90;99.90;;;;;;5132982;27;19930;-56
2023/03/28 05:28:07;;;;;;;;;;;0.90;99.90;;;;;;5133690;27;19995;-56
2023/03/28 05:30:33;;;;;;;;;;;0.80;99.90;;;;;;5133856;27;19964;-56
2023/03/28 05:32:59;;;;;;;;;;;0.80;99.90;;;;;;5132931;27;20007;-55
2023/03/28 05:35:24;;;;;;;;;;;0.80;99.90;;;;;;5133644;27;19911;-54
2023/03/28 05:37:50;;;;;;;;;;;0.80;99.90;;;;;;5133750;28;19914;-52
2023/03/28 05:40:15;;;;;;;;;;;0.70;99.90;;;;;;5132854;28;19964;-56
2023/03/28 05:42:41;;;;;;;;;;;0.60;99.90;;;;;;5134965;27;19956;-54
2023/03/28 05:45:08;;;;;;;;;;;0.60;99.90;;;;;;5137145;27;19919;-55
2023/03/28 05:47:33;;;;;;;;;;;0.60;99.90;;;;;;5138117;27;19998;-55
2023/03/28 05:49:59;;;;;;;;;;;0.60;99.90;;;;;;5137679;27;20349;-54
2023/03/28 05:52:25;;;;;;;;;;;0.80;99.90;;;;;;5137097;27;19907;-56
2023/03/28 05:54:50;;;;;;;;;;;0.80;99.90;;;;;;5137825;27;19952;-56
2023/03/28 05:57:16;;;;;;;;;;;0.90;99.90;;;;;;5137715;27;20389;-54
2023/03/28 05:59:42;;;;;;;;;;;0.90;99.90;;;;;;5136675;27;19941;-56
2023/03/28 06:02:11;;;;;;;;;;;0.90;99.90;;;;;;5137629;27;20369;-55
2023/03/28 06:04:38;;;;;;;;;;;0.90;99.90;;;;;;5137503;27;19915;-55
2023/03/28 06:07:04;;;;;;;;;;;0.90;99.90;;;;;;5136633;27;20299;-56
2023/03/28 06:09:30;;;;;;;;;;;1.00;99.90;;;;;;5137638;27;19912;-55
2023/03/28 06:11:56;;;;;;;;;;;1.00;99.90;;;;;;5137421;27;19908;-55
2023/03/28 06:14:21;;;;;;;;;;;1.00;99.90;;;;;;5136602;27;19942;-55
2023/03/28 06:16:47;;;;;;;;;;;1.00;99.90;;;;;;5137222;27;19911;-53
2023/03/28 06:19:12;;;;;;;;;;;1.00;99.90;;;;;;5137229;27;19907;-56
2023/03/28 06:21:38;;;;;;;;;;;1.00;99.90;;;;;;5136629;27;19914;-55
2023/03/28 06:24:04;;;;;;;;;;;1.00;99.90;;;;;;5137027;27;20431;-55
2023/03/28 06:26:29;;;;;;;;;;;1.00;99.90;;;;;;5137141;27;19908;-56
2023/03/28 06:28:54;;;;;;;;;;;1.00;99.90;;;;;;5136396;27;19953;-56
2023/03/28 06:31:20;;;;;;;;;;;1.00;99.90;;;;;;5137338;27;19907;-55
2023/03/28 06:33:46;;;;;;;;;;;1.10;99.90;;;;;;5136973;27;19908;-56
2023/03/28 06:36:11;;;;;;;;;;;1.20;99.90;;;;;;5136191;27;19931;-55
2023/03/28 06:38:36;;;;;;;;;;;1.20;99.90;;;;;;5137026;27;20297;-56
2023/03/28 06:41:02;;;;;;;;;;;1.30;99.90;;;;;;5136900;27;19964;-57
2023/03/28 06:43:29;;;;;;;;;;;1.40;99.90;;;;;;5136048;27;19969;-56
2023/03/28 06:45:55;;;;;;;;;;;1.50;99.90;;;;;;5136728;27;19907;-56
2023/03/28 06:48:21;;;;;;;;;;;1.60;99.90;;;;;;5135955;27;19914;-56
2023/03/28 06:50:49;;;;;;;;;;;1.60;99.90;;;;;;5136759;27;20318;-55
2023/03/28 06:53:15;;;;;;;;;;;1.70;99.90;;;;;;5136539;27;19908;-55
2023/03/28 06:55:40;;;;;;;;;;;1.80;99.90;;;;;;5135935;27;20328;-56
2023/03/28 06:58:06;;;;;;;;;;;1.90;99.90;;;;;;5136478;27;20353;-56
2023/03/28 07:00:32;;;;;;;;;;;2.00;99.90;;;;;;5136097;27;19920;-56
2023/03/28 07:02:58;;;;;;;;;;;2.10;99.90;;;;;;5135510;27;20385;-56
2023/03/28 07:05:23;;;;;;;;;;;2.20;99.90;;;;;;5136747;27;19912;-56
2023/03/28 07:07:49;;;;;;;;;;;2.30;99.90;;;;;;5136406;27;19907;-54
2023/03/28 07:10:14;;;;;;;;;;;2.50;99.90;;;;;;5135756;27;20390;-55
2023/03/28 07:12:40;;;;;;;;;;;2.60;99.90;;;;;;5136529;27;19908;-56
2023/03/28 07:15:06;;;;;;;;;;;2.70;99.90;;;;;;5136116;27;20282;-56
2023/03/28 07:17:31;;;;;;;;;;;2.90;99.90;;;;;;5135328;27;19915;-56
2023/03/28 07:19:57;;;;;;;;;;;3.00;99.90;;;;;;5136108;27;19964;-56
2023/03/28 07:22:22;;;;;;;;;;;3.20;99.90;;;;;;5136097;27;19907;-56
2023/03/28 07:24:48;;;;;;;;;;;3.30;99.90;;;;;;5135403;27;19934;-57
2023/03/28 07:27:13;;;;;;;;;;;3.50;99.90;;;;;;5135932;27;19907;-57
2023/03/28 07:29:39;;;;;;;;;;;3.60;99.90;;;;;;5136016;27;19930;-56
2023/03/28 07:32:04;;;;;;;;;;;3.70;99.90;;;;;;5135086;27;19923;-55
2023/03/28 07:34:30;;;;;;;;;;;3.80;99.90;;;;;;5136080;27;19914;-56
2023/03/28 07:36:55;;;;;;;;;;;4.00;99.90;;;;;;5135856;27;19930;-56
2023/03/28 07:39:21;;;;;;;;;;;4.10;99.90;;;;;;5135094;27;19960;-56
2023/03/28 07:41:46;;;;;;;;;;;4.20;99.90;;;;;;5135741;27;19960;-55
2023/03/28 07:44:12;;;;;;;;;;;4.30;99.90;;;;;;5135547;27;19984;-57
2023/03/28 07:46:37;;;;;;;;;;;4.50;99.90;;;;;;5134915;27;20017;-56
2023/03/28 07:49:03;;;;;;;;;;;4.60;99.90;;;;;;5135580;27;19925;-57
2023/03/28 07:51:29;;;;;;;;;;;4.70;99.90;;;;;;5135601;27;20336;-57
2023/03/28 07:53:54;;;;;;;;;;;4.80;99.90;;;;;;5134748;27;20311;-56
2023/03/28 07:56:20;;;;;;;;;;;5.00;99.90;;;;;;5135463;27;19908;-56
2023/03/28 07:58:45;;;;;;;;;;;5.10;99.90;;;;;;5134674;27;19908;-56
2023/03/28 08:01:12;;;;;;;;;;;5.20;99.90;;;;;;5135018;27;20416;-56
2023/03/28 08:03:38;;;;;;;;;;;5.30;99.90;;;;;;5135298;27;20009;-56
2023/03/28 08:06:04;;;;;;;;;;;5.40;99.90;;;;;;5133906;27;20010;-56
2023/03/28 08:08:30;;;;;;;;;;;5.50;99.90;;;;;;5135331;27;19950;-54
2023/03/28 08:10:55;;;;;;;;;;;5.60;99.90;;;;;;5135054;27;19965;-54
2023/03/28 08:13:21;;;;;;;;;;;5.70;99.90;;;;;;5134296;27;19959;-57
2023/03/28 08:15:50;;;;;;;;;;;5.80;99.90;;;;;;5135041;27;19916;-55
2023/03/28 08:18:19;;;;;;;;;;;5.90;99.90;;;;;;5134972;27;20299;-55
2023/03/28 08:20:48;;;;;;;;;;;6.10;99.90;;;;;;5134223;27;19959;-56
2023/03/28 08:23:14;;;;;;;;;;;6.30;99.90;;;;;;5134891;27;19922;-56
2023/03/28 08:25:40;;;;;;;;;;;6.40;99.90;;;;;;5134912;27;19930;-55
2023/03/28 08:28:06;;;;;;;;;;;6.60;99.90;;;;;;5133858;27;20374;-56
2023/03/28 08:30:31;;;;;;;;;;;6.80;99.90;;;;;;5134753;27;20309;-56
2023/03/28 08:32:56;;;;;;;;;;;6.80;99.90;;;;;;5134704;27;19908;-56
2023/03/28 08:35:22;;;;;;;;;;;6.70;99.90;;;;;;5133851;27;19943;-55
2023/03/28 08:37:48;;;;;;;;;;;6.60;99.90;;;;;;5134627;27;19908;-56
2023/03/28 08:40:16;;;;;;;;;;;6.60;99.90;;;;;;5134474;27;19912;-56
2023/03/28 08:42:44;;;;;;;;;;;6.60;99.90;;;;;;5133617;27;19907;-55
2023/03/28 08:45:35;;;;;;;;;;;6.60;99.90;;;;;;5134370;27;19947;-56
2023/03/28 08:48:13;;;;;;;;;;;6.50;99.90;;;;;;5133665;27;19930;-56
2023/03/28 08:51:11;;;;;;;;;;;6.50;99.90;;;;;;5134551;27;19909;-56
2023/03/28 08:53:42;;;;;;;;;;;6.40;99.90;;;;;;5077673;27;20000;-56
2023/03/28 08:56:08;;;;;;;;;;;6.40;99.90;;;;;;5133486;27;19907;-55
2023/03/28 08:58:38;;;;;;;;;;;6.40;99.90;;;;;;5134307;27;19911;-56
2023/03/28 09:01:04;;;;;;;;;;;6.40;99.90;;;;;;5133902;27;20026;-55
2023/03/28 09:03:31;;;;;;;;;;;6.40;99.90;;;;;;5133690;27;20069;-56
2023/03/28 09:06:19;;;;;;;;;;;6.50;99.90;;;;;;5134105;27;19918;-55
2023/03/28 09:08:50;;;;;;;;;;;6.50;99.90;;;;;;5134155;27;20409;-54
2023/03/28 09:11:21;;;;;;;;;;;6.50;99.90;;;;;;5133266;27;20288;-54
2023/03/28 09:14:02;;;;;;;;;;;6.60;99.90;;;;;;5134069;27;19927;-54
2023/03/28 09:16:39;;;;;;;;;;;6.60;94.70;;;;;;5133171;27;19952;-55
2023/03/28 09:19:29;;;;;;;;;;;6.70;99.90;;;;;;5133629;27;20037;-56
2023/03/28 09:22:13;;;;;;;;;;;6.80;98.60;;;;;;5133721;27;19933;-56
2023/03/28 09:24:48;;;;;;;;;;;6.90;99.90;;;;;;5132928;27;19915;-54
2023/03/28 09:27:34;;;;;;;;;;;7.10;95.10;;;;;;5133755;27;19935;-55
2023/03/28 09:30:15;;;;;;;;;;;7.30;97.90;;;;;;5133534;27;19955;-56
2023/03/28 09:32:41;;;;;;;;;;;7.40;96.80;;;;;;5133837;27;20148;-55
2023/03/28 09:35:14;;;;;;;;;;;7.50;86.50;;;;;;5133600;27;19908;-55
2023/03/28 09:37:41;;;;;;;;;;;7.50;90.00;;;;;;5133030;28;19908;-53
2023/03/28 09:40:26;;;;;;;;;;;7.50;85.40;;;;;;5133632;28;20354;-55
2023/03/28 09:42:55;;;;;;;;;;;7.60;88.80;;;;;;5133605;28;19911;-53
2023/03/28 09:45:39;;;;;;;;;;;7.80;92.00;;;;;;5132821;28;20378;-54
2023/03/28 09:48:10;;;;;;;;;;;7.80;88.40;;;;;;5133434;28;20327;-54
2023/03/28 09:50:35;;;;;;;;;;;7.70;85.80;;;;;;5133822;28;19908;-54
2023/03/28 09:53:01;;;;;;;;;;;7.80;91.90;;;;;;5132759;28;20026;-53
2023/03/28 09:55:28;;;;;;;;;;;7.70;77.90;;;;;;5133524;28;19908;-56
2023/03/28 09:58:05;;;;;;;;;;;7.70;83.70;;;;;;5133470;28;19912;-55
2023/03/28 10:00:39;;;;;;;;;;;7.80;90.10;;;;;;5132799;28;19919;-54
2023/03/28 10:03:06;;;;;;;;;;;7.90;90.20;;;;;;5133338;28;19911;-56
2023/03/28 10:05:34;;;;;;;;;;;8.10;77.50;;;;;;5132653;28;20399;-55
2023/03/28 10:08:02;;;;;;;;;;;8.00;78.20;;;;;;5133632;28;19960;-56
2023/03/28 10:10:28;;;;;;;;;;;8.00;81.90;;;;;;5133420;28;19911;-56
2023/03/28 10:13:01;;;;;;;;;;;7.80;76.10;;;;;;5132607;28;19956;-55
2023/03/28 10:15:32;;;;;;;;;;;7.80;78.30;;;;;;5133387;28;20417;-55
2023/03/28 10:17:58;;;;;;;;;;;7.70;73.80;;;;;;5133229;28;20308;-54
2023/03/28 10:20:24;;;;;;;;;;;7.70;76.00;;;;;;5132468;28;19918;-56
2023/03/28 10:22:50;;;;;;;;;;;7.60;69.20;;;;;;5133142;28;19915;-56
2023/03/28 10:25:36;;;;;;;;;;;7.60;70.30;;;;;;5133219;28;19908;-56
2023/03/28 10:28:04;;;;;;;;;;;7.70;70.40;;;;;;5131861;27;19908;-56
2023/03/28 10:30:30;;;;;;;;;;;8.00;70.70;;;;;;5137098;27;20377;-55
2023/03/28 10:33:22;;;;;;;;;;;8.10;78.50;;;;;;5137064;27;19907;-57
2023/03/28 10:35:58;;;;;;;;;;;8.40;71.10;;;;;;5131777;27;19981;-56
2023/03/28 10:38:26;;;;;;;;;;;8.70;73.70;;;;;;5137016;27;19952;-55
2023/03/28 10:41:12;;;;;;;;;;;8.70;67.90;;;;;;5136191;27;20010;-55
2023/03/28 10:43:39;;;;;;;;;;;9.00;74.00;;;;;;5136060;27;19915;-55
2023/03/28 10:46:08;;;;;;;;;;;9.00;64.50;;;;;;5136770;27;19907;-55
2023/03/28 10:48:35;;;;;;;;;;;8.90;64.10;;;;;;5136025;27;19911;-54
2023/03/28 10:51:07;;;;;;;;;;;8.80;63.00;;;;;;5136651;27;19907;-56
2023/03/28 10:53:47;;;;;;;;;;;8.70;66.70;;;;;;5136839;27;19915;-56
2023/03/28 10:56:19;;;;;;;;;;;8.60;66.70;;;;;;5135799;27;20413;-56
2023/03/28 10:58:52;;;;;;;;;;;8.80;65.50;;;;;;5136596;27;19907;-57
2023/03/28 11:01:19;;;;;;;;;;;8.90;69.80;;;;;;5136048;27;19926;-57
2023/03/28 11:03:57;;;;;;;;;;;9.10;66.70;;;;;;5135942;27;19930;-57
2023/03/28 11:06:28;;;;;;;;;;;9.00;64.20;;;;;;5136455;27;19911;-57
2023/03/28 11:09:16;;;;;;;;;;;8.80;64.90;;;;;;5135663;27;19908;-56
2023/03/28 11:11:54;;;;;;;;;;;8.80;68.20;;;;;;5088164;27;19908;-57
2023/03/28 11:14:42;;;;;;;;;;;8.70;66.00;;;;;;5136350;27;20383;-56
2023/03/28 11:17:16;;;;;;;;;;;8.70;66.30;;;;;;5135494;27;20366;-57
2023/03/28 11:19:51;;;;;;;;;;;8.60;65.60;;;;;;5136340;27;19908;-56
2023/03/28 11:22:38;;;;;;;;;;;8.70;68.60;;;;;;5135951;27;19907;-57
2023/03/28 11:25:17;;;;;;;;;;;8.70;68.50;;;;;;5136045;27;20317;-56
2023/03/28 11:27:49;;;;;;;;;;;8.70;64.60;;;;;;5136132;27;19922;-57
2023/03/28 11:30:16;;;;;;;;;;;8.60;65.20;;;;;;5135262;27;19921;-57
2023/03/28 11:32:48;;;;;;;;;;;8.60;65.50;;;;;;5135996;27;19907;-57
2023/03/28 11:35:21;;;;;;;;;;;8.60;68.70;;;;;;5135970;27;20110;-56
2023/03/28 11:37:55;;;;;;;;;;;8.80;66.00;;;;;;5135068;27;19933;-57
2023/03/28 11:40:34;;;;;;;;;;;8.80;65.20;;;;;;5134928;27;20014;-58
2023/03/28 11:43:02;;;;;;;;;;;9.10;69.70;;;;;;5135698;27;19911;-57
2023/03/28 11:45:37;;;;;;;;;;;9.30;68.00;;;;;;5134909;27;19908;-56
2023/03/28 11:48:06;;;;;;;;;;;9.20;64.40;;;;;;5135603;27;19915;-58
2023/03/28 11:50:40;;;;;;;;;;;9.20;64.10;;;;;;5135455;27;19908;-57
2023/03/28 11:53:12;;;;;;;;;;;9.40;64.50;;;;;;5135000;27;20350;-57
2023/03/28 11:55:58;;;;;;;;;;;9.40;64.90;;;;;;5135506;27;19912;-56
2023/03/28 11:58:24;;;;;;;;;;;9.20;61.40;;;;;;5116556;27;20366;-57
2023/03/28 12:01:00;;;;;;;;;;;9.20;66.70;;;;;;5135140;27;20338;-57
2023/03/28 12:03:53;;;;;;;;;;;9.00;64.70;;;;;;5135280;27;19941;-58
2023/03/28 12:06:18;;;;;;;;;;;8.90;68.80;;;;;;5095414;27;19915;-57
2023/03/28 12:08:55;;;;;;;;;;;9.00;69.10;;;;;;5135226;27;19982;-57
2023/03/28 12:11:38;;;;;;;;;;;9.20;65.90;;;;;;5135043;27;20384;-56
2023/03/28 12:14:10;;;;;;;;;;;9.50;69.60;;;;;;5134474;27;20348;-57
2023/03/28 12:16:42;;;;;;;;;;;9.80;70.40;;;;;;5135147;27;19908;-57
2023/03/28 12:19:10;;;;;;;;;;;10.10;71.30;;;;;;5134255;27;19914;-57
2023/03/28 12:21:35;;;;;;;;;;;10.30;66.00;;;;;;5135051;27;19907;-58
2023/03/28 12:24:10;;;;;;;;;;;10.40;64.80;;;;;;5134782;27;19961;-56
2023/03/28 12:26:51;;;;;;;;;;;10.60;65.00;;;;;;5134105;27;19960;-57
2023/03/28 12:29:24;;;;;;;;;;;10.50;57.60;;;;;;5134808;27;19914;-57
2023/03/28 12:31:52;;;;;;;;;;;10.30;56.90;;;;;;5134773;27;20088;-57
2023/03/28 12:34:37;;;;;;;;;;;10.10;60.60;;;;;;5134154;27;20282;-57
2023/03/28 12:37:10;;;;;;;;;;;10.20;62.00;;;;;;5134573;27;20362;-57
2023/03/28 12:39:39;;;;;;;;;;;10.30;63.30;;;;;;5134434;27;19907;-58
2023/03/28 12:42:07;;;;;;;;;;;10.10;60.80;;;;;;5133989;27;20001;-58
2023/03/28 12:44:51;;;;;;;;;;;10.30;65.30;;;;;;5134452;27;20024;-58
2023/03/28 12:47:19;;;;;;;;;;;10.50;61.60;;;;;;5133614;27;19912;-58
2023/03/28 12:49:54;;;;;;;;;;;10.50;61.70;;;;;;5134390;27;20248;-57
2023/03/28 12:52:29;;;;;;;;;;;10.70;61.10;;;;;;5134351;27;19907;-58
2023/03/28 12:54:59;;;;;;;;;;;10.70;62.10;;;;;;5133459;27;19907;-58
2023/03/28 12:57:39;;;;;;;;;;;10.80;58.90;;;;;;5134408;27;19911;-57
2023/03/28 13:00:05;;;;;;;;;;;10.80;58.90;;;;;;5133970;27;19954;-57
2023/03/28 13:02:38;;;;;;;;;;;11.00;64.00;;;;;;5133584;27;19915;-57
2023/03/28 13:05:13;;;;;;;;;;;11.00;61.00;;;;;;5134191;27;19919;-58
2023/03/28 13:07:58;;;;;;;;;;;10.80;59.60;;;;;;5133873;27;19914;-56
2023/03/28 13:10:23;;;;;;;;;;;10.50;59.10;;;;;;5133550;27;20319;-58
2023/03/28 13:13:07;;;;;;;;;;;10.50;61.10;;;;;;5134092;27;19907;-58
2023/03/28 13:15:33;;;;;;;;;;;10.60;61.60;;;;;;5133224;27;19990;-58
2023/03/28 13:18:18;;;;;;;;;;;10.70;62.90;;;;;;5133882;27;19973;-58
2023/03/28 13:20:45;;;;;;;;;;;10.90;63.90;;;;;;5134083;27;20361;-58
2023/03/28 13:23:12;;;;;;;;;;;10.70;60.70;;;;;;5133000;27;19926;-57
2023/03/28 13:25:38;;;;;;;;;;;10.60;60.40;;;;;;5134063;27;19907;-57
2023/03/28 13:28:10;;;;;;;;;;;10.80;63.30;;;;;;5133909;27;19917;-58
2023/03/28 13:30:35;;;;;;;;;;;10.90;64.00;;;;;;5133215;27;19907;-58
2023/03/28 13:33:06;;;;;;;;;;;10.80;64.20;;;;;;5133760;27;19961;-58
2023/03/28 13:35:41;;;;;;;;;;;10.80;62.60;;;;;;5133884;27;19907;-58
2023/03/28 13:38:25;;;;;;;;;;;10.90;63.30;;;;;;5133169;27;19953;-57
2023/03/28 13:40:53;;;;;;;;;;;10.90;61.20;;;;;;5133674;28;19950;-57
2023/03/28 13:43:25;;;;;;;;;;;11.10;64.80;;;;;;5132848;28;20010;-58
2023/03/28 13:45:53;;;;;;;;;;;11.20;63.30;;;;;;5133643;28;20442;-57
2023/03/28 13:48:20;;;;;;;;;;;11.30;64.80;;;;;;5133600;28;19998;-59
2023/03/28 13:50:47;;;;;;;;;;;11.30;60.80;;;;;;5132892;28;19908;-57
2023/03/28 13:53:12;;;;;;;;;;;11.00;57.60;;;;;;5133495;28;19998;-58
2023/03/28 13:55:38;;;;;;;;;;;11.00;60.20;;;;;;5133538;28;20022;-58
2023/03/28 13:58:03;;;;;;;;;;;11.10;61.80;;;;;;5132879;28;19919;-58
2023/03/28 14:00:29;;;;;;;;;;;11.20;59.90;;;;;;5133259;28;19972;-59
2023/03/28 14:03:03;;;;;;;;;;;11.10;57.60;;;;;;5133452;27;19976;-59
2023/03/28 14:05:29;;;;;;;;;;;11.10;55.10;;;;;;5136904;27;20002;-57
2023/03/28 14:08:00;;;;;;;;;;;11.30;55.60;;;;;;5137472;27;19922;-57
2023/03/28 14:10:28;;;;;;;;;;;11.50;61.30;;;;;;5137659;27;19937;-58
2023/03/28 14:12:55;;;;;;;;;;;11.70;60.00;;;;;;5136618;27;19915;-57
2023/03/28 14:15:28;;;;;;;;;;;11.60;57.40;;;;;;5137504;27;19908;-57
2023/03/28 14:17:55;;;;;;;;;;;11.20;55.30;;;;;;5137207;27;19907;-58
2023/03/28 14:20:21;;;;;;;;;;;10.80;52.00;;;;;;5136815;27;20006;-59
2023/03/28 14:22:48;;;;;;;;;;;10.40;52.90;;;;;;5137229;27;19950;-56
2023/03/28 14:25:14;;;;;;;;;;;10.40;57.10;;;;;;5137254;27;19936;-57
2023/03/28 14:27:42;;;;;;;;;;;10.30;56.80;;;;;;5136774;27;20339;-58
2023/03/28 14:30:24;;;;;;;;;;;10.30;59.40;;;;;;5137105;27;20423;-57
2023/03/28 14:32:53;;;;;;;;;;;10.10;59.30;;;;;;5136497;27;19918;-58
2023/03/28 14:35:22;;;;;;;;;;;10.00;58.30;;;;;;5137061;27;19907;-58
2023/03/28 14:37:52;;;;;;;;;;;10.00;59.10;;;;;;5137011;27;20271;-58
2023/03/28 14:40:17;;;;;;;;;;;9.90;59.40;;;;;;5136144;27;20366;-58
2023/03/28 14:42:43;;;;;;;;;;;10.00;61.00;;;;;;5137131;27;19931;-58